sensor_id;sensor_type;location;lat;lon;timestamp;P1;durP1;ratioP1;P2;durP2;ratioP2
5616;SDS011;2830;50.656;7.568;2023-08-24T00:01:48;8.03;;;3.07;;
5616;SDS011;2830;50.656;7.568;2023-08-24T00:04:15;5.80;;;2.53;;
5616;SDS011;2830;50.656;7.568;2023-08-24T00:06:42;3.87;;;2.63;;
5616;SDS011;2830;50.656;7.568;2023-08-24T00:09:08;5.00;;;3.07;;
5616;SDS011;2830;50.656;7.568;2023-08-24T00:11:35;5.27;;;2.87;;
5616;SDS011;2830;50.656;7.568;2023-08-24T00:14:02;6.53;;;2.60;;
5616;SDS011;2830;50.656;7.568;2023-08-24T00:16:29;6.10;;;3.13;;
5616;SDS011;2830;50.656;7.568;2023-08-24T00:18:55;6.70;;;2.70;;
5616;SDS011;2830;50.656;7.568;2023-08-24T00:21:22;3.27;;;2.50;;
5616;SDS011;2830;50.656;7.568;2023-08-24T00:23:50;7.40;;;2.83;;
5616;SDS011;2830;50.656;7.568;2023-08-24T00:26:17;6.63;;;2.80;;
5616;SDS011;2830;50.656;7.568;2023-08-24T00:28:44;5.83;;;3.00;;
5616;SDS011;2830;50.656;7.568;2023-08-24T00:31:11;7.30;;;2.97;;
5616;SDS011;2830;50.656;7.568;2023-08-24T00:33:39;3.80;;;2.50;;
5616;SDS011;2830;50.656;7.568;2023-08-24T00:36:06;6.07;;;2.80;;
5616;SDS011;2830;50.656;7.568;2023-08-24T00:38:33;2.73;;;2.20;;
5616;SDS011;2830;50.656;7.568;2023-08-24T00:41:03;5.80;;;2.90;;
5616;SDS011;2830;50.656;7.568;2023-08-24T00:43:31;2.97;;;2.30;;
5616;SDS011;2830;50.656;7.568;2023-08-24T00:45:59;3.60;;;2.60;;
5616;SDS011;2830;50.656;7.568;2023-08-24T00:48:27;6.87;;;3.30;;
5616;SDS011;2830;50.656;7.568;2023-08-24T00:50:55;6.53;;;3.43;;
5616;SDS011;2830;50.656;7.568;2023-08-24T00:53:25;5.63;;;2.57;;
5616;SDS011;2830;50.656;7.568;2023-08-24T00:55:53;7.13;;;2.93;;
5616;SDS011;2830;50.656;7.568;2023-08-24T00:58:20;3.93;;;2.40;;
5616;SDS011;2830;50.656;7.568;2023-08-24T01:00:48;4.70;;;3.10;;
5616;SDS011;2830;50.656;7.568;2023-08-24T01:03:17;9.60;;;2.97;;
5616;SDS011;2830;50.656;7.568;2023-08-24T01:05:43;3.30;;;2.50;;
5616;SDS011;2830;50.656;7.568;2023-08-24T01:08:11;7.20;;;2.90;;
5616;SDS011;2830;50.656;7.568;2023-08-24T01:10:40;5.40;;;3.03;;
5616;SDS011;2830;50.656;7.568;2023-08-24T01:13:37;15.63;;;2.50;;
5616;SDS011;2830;50.656;7.568;2023-08-24T01:16:13;6.10;;;2.33;;
5616;SDS011;2830;50.656;7.568;2023-08-24T01:18:44;6.03;;;2.67;;
5616;SDS011;2830;50.656;7.568;2023-08-24T01:21:13;5.40;;;2.70;;
5616;SDS011;2830;50.656;7.568;2023-08-24T01:23:43;4.50;;;2.87;;
5616;SDS011;2830;50.656;7.568;2023-08-24T01:26:18;7.60;;;2.53;;
5616;SDS011;2830;50.656;7.568;2023-08-24T01:28:46;4.23;;;2.60;;
5616;SDS011;2830;50.656;7.568;2023-08-24T01:31:14;5.07;;;2.67;;
5616;SDS011;2830;50.656;7.568;2023-08-24T01:33:45;4.40;;;2.63;;
5616;SDS011;2830;50.656;7.568;2023-08-24T01:36:13;3.10;;;2.37;;
5616;SDS011;2830;50.656;7.568;2023-08-24T01:38:43;10.23;;;3.20;;
5616;SDS011;2830;50.656;7.568;2023-08-24T01:41:17;3.97;;;2.43;;
5616;SDS011;2830;50.656;7.568;2023-08-24T01:43:52;3.77;;;2.40;;
5616;SDS011;2830;50.656;7.568;2023-08-24T01:46:21;4.07;;;3.00;;
5616;SDS011;2830;50.656;7.568;2023-08-24T01:48:48;4.67;;;2.97;;
5616;SDS011;2830;50.656;7.568;2023-08-24T01:51:17;3.70;;;2.43;;
5616;SDS011;2830;50.656;7.568;2023-08-24T01:53:44;6.73;;;2.70;;
5616;SDS011;2830;50.656;7.568;2023-08-24T01:56:13;5.90;;;2.53;;
5616;SDS011;2830;50.656;7.568;2023-08-24T01:58:42;6.23;;;3.17;;
5616;SDS011;2830;50.656;7.568;2023-08-24T02:01:09;3.20;;;2.37;;
5616;SDS011;2830;50.656;7.568;2023-08-24T02:03:37;4.23;;;2.97;;
5616;SDS011;2830;50.656;7.568;2023-08-24T02:06:06;5.13;;;2.13;;
5616;SDS011;2830;50.656;7.568;2023-08-24T02:08:33;6.20;;;2.50;;
5616;SDS011;2830;50.656;7.568;2023-08-24T02:11:00;3.90;;;2.70;;
5616;SDS011;2830;50.656;7.568;2023-08-24T02:13:27;4.30;;;2.50;;
5616;SDS011;2830;50.656;7.568;2023-08-24T02:18:31;4.63;;;2.87;;
5616;SDS011;2830;50.656;7.568;2023-08-24T02:20:58;4.87;;;2.53;;
5616;SDS011;2830;50.656;7.568;2023-08-24T02:23:25;6.10;;;3.33;;
5616;SDS011;2830;50.656;7.568;2023-08-24T02:25:52;5.97;;;3.03;;
5616;SDS011;2830;50.656;7.568;2023-08-24T02:28:18;7.53;;;3.60;;
5616;SDS011;2830;50.656;7.568;2023-08-24T02:30:45;4.90;;;3.10;;
5616;SDS011;2830;50.656;7.568;2023-08-24T02:33:12;3.00;;;2.40;;
5616;SDS011;2830;50.656;7.568;2023-08-24T02:35:38;4.77;;;2.13;;
5616;SDS011;2830;50.656;7.568;2023-08-24T02:38:05;9.43;;;3.30;;
5616;SDS011;2830;50.656;7.568;2023-08-24T02:40:32;3.70;;;2.93;;
5616;SDS011;2830;50.656;7.568;2023-08-24T02:42:59;8.20;;;2.80;;
5616;SDS011;2830;50.656;7.568;2023-08-24T02:45:25;5.40;;;2.60;;
5616;SDS011;2830;50.656;7.568;2023-08-24T02:47:52;6.47;;;2.40;;
5616;SDS011;2830;50.656;7.568;2023-08-24T02:50:19;5.10;;;2.30;;
5616;SDS011;2830;50.656;7.568;2023-08-24T02:52:46;3.63;;;2.60;;
5616;SDS011;2830;50.656;7.568;2023-08-24T02:55:13;6.87;;;3.10;;
5616;SDS011;2830;50.656;7.568;2023-08-24T02:57:39;3.40;;;2.60;;
5616;SDS011;2830;50.656;7.568;2023-08-24T03:00:06;3.60;;;2.73;;
5616;SDS011;2830;50.656;7.568;2023-08-24T03:02:33;4.77;;;3.07;;
5616;SDS011;2830;50.656;7.568;2023-08-24T03:05:00;5.77;;;3.30;;
5616;SDS011;2830;50.656;7.568;2023-08-24T03:07:27;4.63;;;2.40;;
5616;SDS011;2830;50.656;7.568;2023-08-24T03:09:55;4.93;;;2.60;;
5616;SDS011;2830;50.656;7.568;2023-08-24T03:12:22;8.00;;;3.00;;
5616;SDS011;2830;50.656;7.568;2023-08-24T03:14:51;4.70;;;3.03;;
5616;SDS011;2830;50.656;7.568;2023-08-24T03:17:19;5.90;;;3.20;;
5616;SDS011;2830;50.656;7.568;2023-08-24T03:19:46;7.70;;;3.07;;
5616;SDS011;2830;50.656;7.568;2023-08-24T03:22:12;6.27;;;3.00;;
5616;SDS011;2830;50.656;7.568;2023-08-24T03:24:39;8.17;;;4.53;;
5616;SDS011;2830;50.656;7.568;2023-08-24T03:27:06;4.40;;;2.47;;
5616;SDS011;2830;50.656;7.568;2023-08-24T03:29:32;5.23;;;2.50;;
5616;SDS011;2830;50.656;7.568;2023-08-24T03:31:59;3.70;;;2.63;;
5616;SDS011;2830;50.656;7.568;2023-08-24T03:34:26;5.40;;;3.10;;
5616;SDS011;2830;50.656;7.568;2023-08-24T03:36:53;7.33;;;3.20;;
5616;SDS011;2830;50.656;7.568;2023-08-24T03:39:20;8.10;;;3.17;;
5616;SDS011;2830;50.656;7.568;2023-08-24T03:41:46;3.30;;;2.50;;
5616;SDS011;2830;50.656;7.568;2023-08-24T03:44:13;8.70;;;3.10;;
5616;SDS011;2830;50.656;7.568;2023-08-24T03:46:40;4.50;;;2.83;;
5616;SDS011;2830;50.656;7.568;2023-08-24T03:49:07;5.03;;;3.13;;
5616;SDS011;2830;50.656;7.568;2023-08-24T03:51:34;7.40;;;2.90;;
5616;SDS011;2830;50.656;7.568;2023-08-24T03:54:00;4.00;;;2.73;;
5616;SDS011;2830;50.656;7.568;2023-08-24T03:56:29;4.60;;;2.80;;
5616;SDS011;2830;50.656;7.568;2023-08-24T03:58:56;7.20;;;3.00;;
5616;SDS011;2830;50.656;7.568;2023-08-24T04:01:22;4.80;;;2.97;;
5616;SDS011;2830;50.656;7.568;2023-08-24T04:03:49;9.10;;;3.50;;
5616;SDS011;2830;50.656;7.568;2023-08-24T04:06:17;9.87;;;2.63;;
5616;SDS011;2830;50.656;7.568;2023-08-24T04:08:45;5.20;;;2.73;;
5616;SDS011;2830;50.656;7.568;2023-08-24T04:11:12;4.73;;;2.50;;
5616;SDS011;2830;50.656;7.568;2023-08-24T04:13:39;8.53;;;2.93;;
5616;SDS011;2830;50.656;7.568;2023-08-24T04:16:05;2.60;;;2.07;;
5616;SDS011;2830;50.656;7.568;2023-08-24T04:18:32;4.87;;;2.80;;
5616;SDS011;2830;50.656;7.568;2023-08-24T04:20:59;4.83;;;2.77;;
5616;SDS011;2830;50.656;7.568;2023-08-24T04:23:26;5.03;;;2.60;;
5616;SDS011;2830;50.656;7.568;2023-08-24T04:25:54;15.33;;;3.13;;
5616;SDS011;2830;50.656;7.568;2023-08-24T04:28:21;4.73;;;2.83;;
5616;SDS011;2830;50.656;7.568;2023-08-24T04:30:54;6.73;;;2.90;;
5616;SDS011;2830;50.656;7.568;2023-08-24T04:33:23;7.57;;;3.40;;
5616;SDS011;2830;50.656;7.568;2023-08-24T04:35:50;5.80;;;2.87;;
5616;SDS011;2830;50.656;7.568;2023-08-24T04:38:17;5.23;;;3.10;;
5616;SDS011;2830;50.656;7.568;2023-08-24T04:40:53;5.80;;;3.37;;
5616;SDS011;2830;50.656;7.568;2023-08-24T04:43:22;5.13;;;2.80;;
5616;SDS011;2830;50.656;7.568;2023-08-24T04:45:53;4.00;;;2.53;;
5616;SDS011;2830;50.656;7.568;2023-08-24T04:48:21;11.07;;;3.20;;
5616;SDS011;2830;50.656;7.568;2023-08-24T04:50:48;5.33;;;3.37;;
5616;SDS011;2830;50.656;7.568;2023-08-24T04:53:16;3.90;;;3.00;;
5616;SDS011;2830;50.656;7.568;2023-08-24T04:55:44;4.60;;;3.20;;
5616;SDS011;2830;50.656;7.568;2023-08-24T04:58:12;7.17;;;3.07;;
5616;SDS011;2830;50.656;7.568;2023-08-24T05:00:39;8.80;;;3.17;;
5616;SDS011;2830;50.656;7.568;2023-08-24T05:03:06;5.00;;;3.70;;
5616;SDS011;2830;50.656;7.568;2023-08-24T05:05:34;5.20;;;3.13;;
5616;SDS011;2830;50.656;7.568;2023-08-24T05:08:02;5.43;;;2.87;;
5616;SDS011;2830;50.656;7.568;2023-08-24T05:10:33;8.50;;;3.10;;
5616;SDS011;2830;50.656;7.568;2023-08-24T05:13:00;3.93;;;2.83;;
5616;SDS011;2830;50.656;7.568;2023-08-24T05:15:26;5.30;;;3.13;;
5616;SDS011;2830;50.656;7.568;2023-08-24T05:17:53;4.57;;;3.07;;
5616;SDS011;2830;50.656;7.568;2023-08-24T05:20:22;3.80;;;2.40;;
5616;SDS011;2830;50.656;7.568;2023-08-24T05:22:49;6.03;;;3.23;;
5616;SDS011;2830;50.656;7.568;2023-08-24T05:25:16;4.03;;;3.50;;
5616;SDS011;2830;50.656;7.568;2023-08-24T05:27:42;4.83;;;3.57;;
5616;SDS011;2830;50.656;7.568;2023-08-24T05:30:10;3.97;;;3.07;;
5616;SDS011;2830;50.656;7.568;2023-08-24T05:32:37;7.40;;;3.40;;
5616;SDS011;2830;50.656;7.568;2023-08-24T05:35:05;4.60;;;2.90;;
5616;SDS011;2830;50.656;7.568;2023-08-24T05:37:32;4.47;;;3.43;;
5616;SDS011;2830;50.656;7.568;2023-08-24T05:40:00;8.90;;;3.47;;
5616;SDS011;2830;50.656;7.568;2023-08-24T05:42:30;8.97;;;3.90;;
5616;SDS011;2830;50.656;7.568;2023-08-24T05:44:57;6.30;;;3.77;;
5616;SDS011;2830;50.656;7.568;2023-08-24T05:47:23;8.73;;;3.37;;
5616;SDS011;2830;50.656;7.568;2023-08-24T05:49:50;7.17;;;3.57;;
5616;SDS011;2830;50.656;7.568;2023-08-24T05:52:17;5.27;;;3.77;;
5616;SDS011;2830;50.656;7.568;2023-08-24T05:54:44;5.17;;;3.70;;
5616;SDS011;2830;50.656;7.568;2023-08-24T05:57:10;4.33;;;2.90;;
5616;SDS011;2830;50.656;7.568;2023-08-24T05:59:37;3.90;;;2.97;;
5616;SDS011;2830;50.656;7.568;2023-08-24T06:02:04;4.20;;;3.43;;
5616;SDS011;2830;50.656;7.568;2023-08-24T06:04:31;4.93;;;3.53;;
5616;SDS011;2830;50.656;7.568;2023-08-24T06:06:58;5.67;;;3.90;;
5616;SDS011;2830;50.656;7.568;2023-08-24T06:09:25;15.50;;;3.60;;
5616;SDS011;2830;50.656;7.568;2023-08-24T06:11:52;5.93;;;3.60;;
5616;SDS011;2830;50.656;7.568;2023-08-24T06:14:18;11.17;;;3.93;;
5616;SDS011;2830;50.656;7.568;2023-08-24T06:16:45;5.27;;;3.90;;
5616;SDS011;2830;50.656;7.568;2023-08-24T06:19:12;7.50;;;3.90;;
5616;SDS011;2830;50.656;7.568;2023-08-24T06:21:39;10.80;;;4.80;;
5616;SDS011;2830;50.656;7.568;2023-08-24T06:24:05;8.53;;;5.23;;
5616;SDS011;2830;50.656;7.568;2023-08-24T06:26:32;5.17;;;4.27;;
5616;SDS011;2830;50.656;7.568;2023-08-24T06:28:59;5.33;;;4.00;;
5616;SDS011;2830;50.656;7.568;2023-08-24T06:31:26;4.03;;;3.63;;
5616;SDS011;2830;50.656;7.568;2023-08-24T06:33:53;9.20;;;4.50;;
5616;SDS011;2830;50.656;7.568;2023-08-24T06:36:23;8.17;;;3.87;;
5616;SDS011;2830;50.656;7.568;2023-08-24T06:38:53;9.73;;;4.10;;
5616;SDS011;2830;50.656;7.568;2023-08-24T06:42:09;7.73;;;3.90;;
5616;SDS011;2830;50.656;7.568;2023-08-24T06:44:37;3.90;;;3.20;;
5616;SDS011;2830;50.656;7.568;2023-08-24T06:47:12;7.23;;;4.00;;
5616;SDS011;2830;50.656;7.568;2023-08-24T06:49:42;5.50;;;4.30;;
5616;SDS011;2830;50.656;7.568;2023-08-24T06:52:09;7.57;;;4.40;;
5616;SDS011;2830;50.656;7.568;2023-08-24T06:54:36;5.80;;;4.30;;
5616;SDS011;2830;50.656;7.568;2023-08-24T06:57:02;6.20;;;3.60;;
5616;SDS011;2830;50.656;7.568;2023-08-24T06:59:29;6.00;;;4.07;;
5616;SDS011;2830;50.656;7.568;2023-08-24T07:01:56;4.80;;;3.90;;
5616;SDS011;2830;50.656;7.568;2023-08-24T07:04:24;5.57;;;3.67;;
5616;SDS011;2830;50.656;7.568;2023-08-24T07:06:52;5.73;;;3.50;;
5616;SDS011;2830;50.656;7.568;2023-08-24T07:09:19;9.07;;;3.53;;
5616;SDS011;2830;50.656;7.568;2023-08-24T07:11:47;7.43;;;4.23;;
5616;SDS011;2830;50.656;7.568;2023-08-24T07:14:14;4.47;;;3.20;;
5616;SDS011;2830;50.656;7.568;2023-08-24T07:16:41;3.90;;;3.27;;
5616;SDS011;2830;50.656;7.568;2023-08-24T07:19:08;5.80;;;2.80;;
5616;SDS011;2830;50.656;7.568;2023-08-24T07:21:35;11.50;;;2.83;;
5616;SDS011;2830;50.656;7.568;2023-08-24T07:24:03;5.70;;;2.87;;
5616;SDS011;2830;50.656;7.568;2023-08-24T07:26:30;6.20;;;2.97;;
5616;SDS011;2830;50.656;7.568;2023-08-24T07:28:57;8.73;;;2.53;;
5616;SDS011;2830;50.656;7.568;2023-08-24T07:31:25;6.83;;;3.10;;
5616;SDS011;2830;50.656;7.568;2023-08-24T07:33:52;4.50;;;2.30;;
5616;SDS011;2830;50.656;7.568;2023-08-24T07:36:19;6.30;;;2.33;;
5616;SDS011;2830;50.656;7.568;2023-08-24T07:38:46;4.80;;;1.90;;
5616;SDS011;2830;50.656;7.568;2023-08-24T07:41:13;4.80;;;2.50;;
5616;SDS011;2830;50.656;7.568;2023-08-24T07:43:40;6.50;;;2.97;;
5616;SDS011;2830;50.656;7.568;2023-08-24T07:46:07;4.97;;;2.13;;
5616;SDS011;2830;50.656;7.568;2023-08-24T07:48:35;4.77;;;1.77;;
5616;SDS011;2830;50.656;7.568;2023-08-24T07:51:02;8.07;;;1.80;;
5616;SDS011;2830;50.656;7.568;2023-08-24T07:53:29;4.20;;;2.37;;
5616;SDS011;2830;50.656;7.568;2023-08-24T07:55:55;5.27;;;2.60;;
5616;SDS011;2830;50.656;7.568;2023-08-24T07:58:23;4.50;;;1.90;;
5616;SDS011;2830;50.656;7.568;2023-08-24T08:00:51;5.13;;;2.03;;
5616;SDS011;2830;50.656;7.568;2023-08-24T08:03:18;4.03;;;2.10;;
5616;SDS011;2830;50.656;7.568;2023-08-24T08:05:46;4.13;;;2.27;;
5616;SDS011;2830;50.656;7.568;2023-08-24T08:08:14;5.90;;;2.13;;
5616;SDS011;2830;50.656;7.568;2023-08-24T08:10:40;4.47;;;2.20;;
5616;SDS011;2830;50.656;7.568;2023-08-24T08:13:08;4.80;;;1.93;;
5616;SDS011;2830;50.656;7.568;2023-08-24T08:15:37;4.90;;;2.10;;
5616;SDS011;2830;50.656;7.568;2023-08-24T08:18:05;3.93;;;1.87;;
5616;SDS011;2830;50.656;7.568;2023-08-24T08:20:32;3.70;;;1.73;;
5616;SDS011;2830;50.656;7.568;2023-08-24T08:22:58;8.33;;;2.60;;
5616;SDS011;2830;50.656;7.568;2023-08-24T08:25:26;5.93;;;2.20;;
5616;SDS011;2830;50.656;7.568;2023-08-24T08:27:52;4.20;;;1.97;;
5616;SDS011;2830;50.656;7.568;2023-08-24T08:30:19;6.27;;;1.47;;
5616;SDS011;2830;50.656;7.568;2023-08-24T08:32:46;3.93;;;2.03;;
5616;SDS011;2830;50.656;7.568;2023-08-24T08:35:13;4.97;;;2.10;;
5616;SDS011;2830;50.656;7.568;2023-08-24T08:37:40;3.50;;;2.00;;
5616;SDS011;2830;50.656;7.568;2023-08-24T08:40:09;5.07;;;2.47;;
5616;SDS011;2830;50.656;7.568;2023-08-24T08:42:36;7.23;;;2.43;;
5616;SDS011;2830;50.656;7.568;2023-08-24T08:45:04;3.90;;;2.20;;
5616;SDS011;2830;50.656;7.568;2023-08-24T08:47:35;8.23;;;2.10;;
5616;SDS011;2830;50.656;7.568;2023-08-24T08:50:02;6.20;;;1.83;;
5616;SDS011;2830;50.656;7.568;2023-08-24T08:52:33;3.43;;;1.93;;
5616;SDS011;2830;50.656;7.568;2023-08-24T08:55:00;9.03;;;2.30;;
5616;SDS011;2830;50.656;7.568;2023-08-24T08:57:27;11.63;;;2.47;;
5616;SDS011;2830;50.656;7.568;2023-08-24T08:59:58;5.20;;;2.03;;
5616;SDS011;2830;50.656;7.568;2023-08-24T09:02:24;3.20;;;1.97;;
5616;SDS011;2830;50.656;7.568;2023-08-24T09:04:52;2.87;;;1.43;;
5616;SDS011;2830;50.656;7.568;2023-08-24T09:07:19;3.40;;;1.97;;
5616;SDS011;2830;50.656;7.568;2023-08-24T09:09:46;3.83;;;1.97;;
5616;SDS011;2830;50.656;7.568;2023-08-24T09:12:13;6.23;;;1.77;;
5616;SDS011;2830;50.656;7.568;2023-08-24T09:14:40;4.53;;;2.00;;
5616;SDS011;2830;50.656;7.568;2023-08-24T09:17:07;6.60;;;2.50;;
5616;SDS011;2830;50.656;7.568;2023-08-24T09:19:34;3.90;;;2.03;;
5616;SDS011;2830;50.656;7.568;2023-08-24T09:22:05;6.90;;;2.17;;
5616;SDS011;2830;50.656;7.568;2023-08-24T09:24:34;6.67;;;1.93;;
5616;SDS011;2830;50.656;7.568;2023-08-24T09:27:13;4.50;;;2.77;;
5616;SDS011;2830;50.656;7.568;2023-08-24T09:29:42;3.57;;;1.77;;
5616;SDS011;2830;50.656;7.568;2023-08-24T09:32:09;6.77;;;1.80;;
5616;SDS011;2830;50.656;7.568;2023-08-24T09:34:36;3.80;;;2.17;;
5616;SDS011;2830;50.656;7.568;2023-08-24T09:37:03;5.10;;;2.23;;
5616;SDS011;2830;50.656;7.568;2023-08-24T09:39:30;3.97;;;1.87;;
5616;SDS011;2830;50.656;7.568;2023-08-24T09:41:59;4.47;;;1.77;;
5616;SDS011;2830;50.656;7.568;2023-08-24T09:44:29;6.27;;;2.00;;
5616;SDS011;2830;50.656;7.568;2023-08-24T09:46:58;7.30;;;1.90;;
5616;SDS011;2830;50.656;7.568;2023-08-24T09:49:25;5.60;;;1.90;;
5616;SDS011;2830;50.656;7.568;2023-08-24T09:51:57;4.60;;;2.03;;
5616;SDS011;2830;50.656;7.568;2023-08-24T09:54:26;3.67;;;1.67;;
5616;SDS011;2830;50.656;7.568;2023-08-24T09:56:54;4.83;;;1.77;;
5616;SDS011;2830;50.656;7.568;2023-08-24T09:59:22;3.80;;;2.10;;
5616;SDS011;2830;50.656;7.568;2023-08-24T10:01:52;5.80;;;2.23;;
5616;SDS011;2830;50.656;7.568;2023-08-24T10:04:24;8.33;;;2.07;;
5616;SDS011;2830;50.656;7.568;2023-08-24T10:06:56;5.07;;;1.70;;
5616;SDS011;2830;50.656;7.568;2023-08-24T10:09:38;4.03;;;1.70;;
5616;SDS011;2830;50.656;7.568;2023-08-24T10:12:23;5.60;;;1.90;;
5616;SDS011;2830;50.656;7.568;2023-08-24T10:14:59;4.53;;;2.20;;
5616;SDS011;2830;50.656;7.568;2023-08-24T10:17:31;5.67;;;2.50;;
5616;SDS011;2830;50.656;7.568;2023-08-24T10:19:59;3.70;;;1.37;;
5616;SDS011;2830;50.656;7.568;2023-08-24T10:22:32;4.63;;;2.10;;
5616;SDS011;2830;50.656;7.568;2023-08-24T10:25:00;4.00;;;2.00;;
5616;SDS011;2830;50.656;7.568;2023-08-24T10:27:28;5.57;;;2.30;;
5616;SDS011;2830;50.656;7.568;2023-08-24T10:29:56;4.77;;;1.90;;
5616;SDS011;2830;50.656;7.568;2023-08-24T10:32:25;7.40;;;2.30;;
5616;SDS011;2830;50.656;7.568;2023-08-24T10:34:53;5.43;;;1.90;;
5616;SDS011;2830;50.656;7.568;2023-08-24T10:37:26;8.13;;;2.17;;
5616;SDS011;2830;50.656;7.568;2023-08-24T10:39:54;5.63;;;2.20;;
5616;SDS011;2830;50.656;7.568;2023-08-24T10:42:21;4.40;;;1.97;;
5616;SDS011;2830;50.656;7.568;2023-08-24T10:44:47;5.47;;;2.20;;
5616;SDS011;2830;50.656;7.568;2023-08-24T10:47:19;3.90;;;1.93;;
5616;SDS011;2830;50.656;7.568;2023-08-24T10:52:22;4.50;;;2.00;;
5616;SDS011;2830;50.656;7.568;2023-08-24T10:54:56;4.77;;;2.20;;
5616;SDS011;2830;50.656;7.568;2023-08-24T10:57:26;4.63;;;2.50;;
5616;SDS011;2830;50.656;7.568;2023-08-24T11:00:07;7.13;;;2.30;;
5616;SDS011;2830;50.656;7.568;2023-08-24T11:02:43;4.23;;;2.00;;
5616;SDS011;2830;50.656;7.568;2023-08-24T11:08:08;9.20;;;2.20;;
5616;SDS011;2830;50.656;7.568;2023-08-24T11:13:15;4.50;;;2.20;;
5616;SDS011;2830;50.656;7.568;2023-08-24T11:15:43;4.23;;;2.20;;
5616;SDS011;2830;50.656;7.568;2023-08-24T11:18:12;4.87;;;1.70;;
5616;SDS011;2830;50.656;7.568;2023-08-24T11:20:45;9.83;;;2.13;;
5616;SDS011;2830;50.656;7.568;2023-08-24T11:23:14;5.73;;;1.80;;
5616;SDS011;2830;50.656;7.568;2023-08-24T11:25:42;4.30;;;1.80;;
5616;SDS011;2830;50.656;7.568;2023-08-24T11:28:09;6.00;;;1.83;;
5616;SDS011;2830;50.656;7.568;2023-08-24T11:30:36;4.47;;;1.77;;
5616;SDS011;2830;50.656;7.568;2023-08-24T11:33:03;3.30;;;1.90;;
5616;SDS011;2830;50.656;7.568;2023-08-24T11:35:34;3.90;;;1.83;;
5616;SDS011;2830;50.656;7.568;2023-08-24T11:38:02;4.10;;;1.70;;
5616;SDS011;2830;50.656;7.568;2023-08-24T11:40:29;6.30;;;2.40;;
5616;SDS011;2830;50.656;7.568;2023-08-24T11:42:56;6.80;;;1.87;;
5616;SDS011;2830;50.656;7.568;2023-08-24T11:45:23;6.87;;;2.13;;
5616;SDS011;2830;50.656;7.568;2023-08-24T11:47:55;4.13;;;1.97;;
5616;SDS011;2830;50.656;7.568;2023-08-24T11:50:23;3.50;;;1.90;;
5616;SDS011;2830;50.656;7.568;2023-08-24T11:52:50;3.53;;;1.70;;
5616;SDS011;2830;50.656;7.568;2023-08-24T11:55:20;4.37;;;1.87;;
5616;SDS011;2830;50.656;7.568;2023-08-24T11:57:47;3.97;;;1.67;;
5616;SDS011;2830;50.656;7.568;2023-08-24T12:00:15;5.10;;;1.93;;
5616;SDS011;2830;50.656;7.568;2023-08-24T12:02:43;5.93;;;2.40;;
5616;SDS011;2830;50.656;7.568;2023-08-24T12:05:20;4.83;;;2.13;;
5616;SDS011;2830;50.656;7.568;2023-08-24T12:07:48;3.30;;;2.00;;
5616;SDS011;2830;50.656;7.568;2023-08-24T12:10:15;5.23;;;2.00;;
5616;SDS011;2830;50.656;7.568;2023-08-24T12:12:42;11.97;;;2.27;;
5616;SDS011;2830;50.656;7.568;2023-08-24T12:15:14;4.67;;;1.80;;
5616;SDS011;2830;50.656;7.568;2023-08-24T12:17:43;4.20;;;1.90;;
5616;SDS011;2830;50.656;7.568;2023-08-24T12:20:18;3.73;;;1.73;;
5616;SDS011;2830;50.656;7.568;2023-08-24T12:22:52;5.13;;;2.20;;
5616;SDS011;2830;50.656;7.568;2023-08-24T12:25:24;4.93;;;1.97;;
5616;SDS011;2830;50.656;7.568;2023-08-24T12:27:52;4.00;;;2.10;;
5616;SDS011;2830;50.656;7.568;2023-08-24T12:30:19;3.97;;;1.90;;
5616;SDS011;2830;50.656;7.568;2023-08-24T12:32:47;4.43;;;2.57;;
5616;SDS011;2830;50.656;7.568;2023-08-24T12:35:17;3.97;;;1.97;;
5616;SDS011;2830;50.656;7.568;2023-08-24T12:37:44;7.17;;;2.20;;
5616;SDS011;2830;50.656;7.568;2023-08-24T12:40:10;4.70;;;2.30;;
5616;SDS011;2830;50.656;7.568;2023-08-24T12:42:38;6.97;;;2.60;;
5616;SDS011;2830;50.656;7.568;2023-08-24T12:45:05;6.93;;;2.10;;
5616;SDS011;2830;50.656;7.568;2023-08-24T12:47:33;5.90;;;2.70;;
5616;SDS011;2830;50.656;7.568;2023-08-24T12:50:04;5.43;;;2.37;;
5616;SDS011;2830;50.656;7.568;2023-08-24T12:52:31;6.03;;;2.30;;
5616;SDS011;2830;50.656;7.568;2023-08-24T12:54:58;5.70;;;2.17;;
5616;SDS011;2830;50.656;7.568;2023-08-24T12:57:25;4.20;;;2.43;;
5616;SDS011;2830;50.656;7.568;2023-08-24T12:59:51;8.33;;;2.33;;
5616;SDS011;2830;50.656;7.568;2023-08-24T13:02:20;5.90;;;2.70;;
5616;SDS011;2830;50.656;7.568;2023-08-24T13:04:58;6.13;;;2.90;;
5616;SDS011;2830;50.656;7.568;2023-08-24T13:07:27;7.77;;;2.50;;
5616;SDS011;2830;50.656;7.568;2023-08-24T13:09:54;4.43;;;2.63;;
5616;SDS011;2830;50.656;7.568;2023-08-24T13:12:20;5.47;;;2.37;;
5616;SDS011;2830;50.656;7.568;2023-08-24T13:14:47;7.03;;;3.13;;
5616;SDS011;2830;50.656;7.568;2023-08-24T13:17:14;8.30;;;2.83;;
5616;SDS011;2830;50.656;7.568;2023-08-24T13:19:41;5.03;;;2.30;;
5616;SDS011;2830;50.656;7.568;2023-08-24T13:22:08;6.27;;;3.00;;
5616;SDS011;2830;50.656;7.568;2023-08-24T13:24:34;8.03;;;2.87;;
5616;SDS011;2830;50.656;7.568;2023-08-24T13:27:01;6.63;;;3.50;;
5616;SDS011;2830;50.656;7.568;2023-08-24T13:29:29;6.10;;;2.87;;
5616;SDS011;2830;50.656;7.568;2023-08-24T13:31:56;3.83;;;2.37;;
5616;SDS011;2830;50.656;7.568;2023-08-24T13:34:22;8.10;;;2.97;;
5616;SDS011;2830;50.656;7.568;2023-08-24T13:36:49;5.37;;;3.20;;
5616;SDS011;2830;50.656;7.568;2023-08-24T13:39:15;4.07;;;2.40;;
5616;SDS011;2830;50.656;7.568;2023-08-24T13:41:43;6.20;;;2.07;;
5616;SDS011;2830;50.656;7.568;2023-08-24T13:44:10;7.60;;;3.10;;
5616;SDS011;2830;50.656;7.568;2023-08-24T13:46:36;8.50;;;2.70;;
5616;SDS011;2830;50.656;7.568;2023-08-24T13:49:03;5.30;;;2.50;;
5616;SDS011;2830;50.656;7.568;2023-08-24T13:51:30;7.43;;;2.83;;
5616;SDS011;2830;50.656;7.568;2023-08-24T13:53:57;5.07;;;3.27;;
5616;SDS011;2830;50.656;7.568;2023-08-24T13:56:23;5.27;;;2.93;;
5616;SDS011;2830;50.656;7.568;2023-08-24T13:58:50;4.90;;;3.10;;
5616;SDS011;2830;50.656;7.568;2023-08-24T14:01:17;10.63;;;3.10;;
5616;SDS011;2830;50.656;7.568;2023-08-24T14:03:43;7.27;;;3.30;;
5616;SDS011;2830;50.656;7.568;2023-08-24T14:06:10;4.70;;;2.53;;
5616;SDS011;2830;50.656;7.568;2023-08-24T14:08:37;5.67;;;3.60;;
5616;SDS011;2830;50.656;7.568;2023-08-24T14:11:04;5.07;;;2.57;;
5616;SDS011;2830;50.656;7.568;2023-08-24T14:13:30;5.63;;;3.13;;
5616;SDS011;2830;50.656;7.568;2023-08-24T14:15:57;6.20;;;3.27;;
5616;SDS011;2830;50.656;7.568;2023-08-24T14:18:24;6.87;;;3.57;;
5616;SDS011;2830;50.656;7.568;2023-08-24T14:20:51;6.33;;;2.50;;
5616;SDS011;2830;50.656;7.568;2023-08-24T14:23:17;4.60;;;2.53;;
5616;SDS011;2830;50.656;7.568;2023-08-24T14:25:45;9.37;;;3.27;;
5616;SDS011;2830;50.656;7.568;2023-08-24T14:28:13;7.20;;;3.10;;
5616;SDS011;2830;50.656;7.568;2023-08-24T14:30:40;5.27;;;3.03;;
5616;SDS011;2830;50.656;7.568;2023-08-24T14:33:07;3.93;;;2.37;;
5616;SDS011;2830;50.656;7.568;2023-08-24T14:35:34;6.73;;;3.30;;
5616;SDS011;2830;50.656;7.568;2023-08-24T14:38:00;6.00;;;2.70;;
5616;SDS011;2830;50.656;7.568;2023-08-24T14:40:27;5.67;;;2.63;;
5616;SDS011;2830;50.656;7.568;2023-08-24T14:42:54;5.73;;;2.47;;
5616;SDS011;2830;50.656;7.568;2023-08-24T14:45:21;6.07;;;3.13;;
5616;SDS011;2830;50.656;7.568;2023-08-24T14:47:48;6.60;;;3.20;;
5616;SDS011;2830;50.656;7.568;2023-08-24T14:50:15;7.87;;;2.70;;
5616;SDS011;2830;50.656;7.568;2023-08-24T14:52:42;8.27;;;3.20;;
5616;SDS011;2830;50.656;7.568;2023-08-24T14:55:09;5.90;;;3.30;;
5616;SDS011;2830;50.656;7.568;2023-08-24T14:57:36;6.03;;;3.13;;
5616;SDS011;2830;50.656;7.568;2023-08-24T15:00:03;6.00;;;3.13;;
5616;SDS011;2830;50.656;7.568;2023-08-24T15:02:31;9.73;;;3.00;;
5616;SDS011;2830;50.656;7.568;2023-08-24T15:05:01;10.43;;;3.60;;
5616;SDS011;2830;50.656;7.568;2023-08-24T15:07:29;6.83;;;3.20;;
5616;SDS011;2830;50.656;7.568;2023-08-24T15:09:56;5.40;;;2.50;;
5616;SDS011;2830;50.656;7.568;2023-08-24T15:12:23;6.93;;;2.70;;
5616;SDS011;2830;50.656;7.568;2023-08-24T15:14:57;4.93;;;2.50;;
5616;SDS011;2830;50.656;7.568;2023-08-24T15:17:25;8.83;;;3.03;;
5616;SDS011;2830;50.656;7.568;2023-08-24T15:19:53;8.20;;;3.53;;
5616;SDS011;2830;50.656;7.568;2023-08-24T15:22:20;11.97;;;3.40;;
5616;SDS011;2830;50.656;7.568;2023-08-24T15:24:47;4.80;;;3.10;;
5616;SDS011;2830;50.656;7.568;2023-08-24T15:27:14;7.83;;;4.40;;
5616;SDS011;2830;50.656;7.568;2023-08-24T15:29:40;6.37;;;3.70;;
5616;SDS011;2830;50.656;7.568;2023-08-24T15:32:08;6.00;;;3.43;;